Time;durP1;ratioP1;P1;durP2;ratioP2;P2;SDS_P1;SDS_P2;PMS_P1;PMS_P2;Temp;Humidity;BMP_temperature;BMP_pressure;BME280_temperature;BME280_humidity;BME280_pressure;Samples;Min_cycle;Max_cycle;Signal;HPM_P1;HPM_P2
2023/06/07 00:01:57;;;;;;;16.85;8.45;;;;;;;-148.88;100.00;-17125.47;4961195;28;20074;-86
2023/06/07 00:04:23;;;;;;;14.95;8.48;;;;;;;-148.88;100.00;-17125.47;4960279;29;20050;-86
2023/06/07 00:06:48;;;;;;;14.75;8.50;;;;;;;-148.88;100.00;-17125.47;4959950;28;20039;-86
2023/06/07 00:09:14;;;;;;;14.38;8.63;;;;;;;-148.88;100.00;-17125.47;4976696;28;20046;-86
2023/06/07 00:11:39;;;;;;;16.17;8.90;;;;;;;-148.88;100.00;-17125.47;4961448;29;20398;-87
2023/06/07 00:14:05;;;;;;;15.68;8.98;;;;;;;-148.88;100.00;-17125.47;4961821;28;20023;-86
2023/06/07 00:16:32;;;;;;;18.08;8.27;;;;;;;-148.88;100.00;-17125.47;4977028;28;20098;-86
2023/06/07 00:18:58;;;;;;;18.08;9.48;;;;;;;-148.88;100.00;-17125.47;4960798;28;20030;-87
2023/06/07 00:21:24;;;;;;;20.80;9.55;;;;;;;-148.88;100.00;-17125.47;4962192;29;20027;-87
2023/06/07 00:23:49;;;;;;;21.55;10.07;;;;;;;-148.88;100.00;-17125.47;4977515;28;20018;-89
2023/06/07 00:26:15;;;;;;;15.95;9.27;;;;;;;-148.88;100.00;-17125.47;4985962;28;20035;-88
2023/06/07 00:28:40;;;;;;;18.50;9.98;;;;;;;-148.88;100.00;-17125.47;4982738;28;20160;-86
2023/06/07 00:31:06;;;;;;;21.15;9.85;;;;;;;-148.88;100.00;-17125.47;4961814;28;20031;-87
2023/06/07 00:33:33;;;;;;;19.42;9.45;;;;;;;-148.88;100.00;-17125.47;4957043;28;20074;-86
2023/06/07 00:35:58;;;;;;;18.10;10.15;;;;;;;-148.88;100.00;-17125.47;4973584;28;20023;-87
2023/06/07 00:38:24;;;;;;;15.88;9.63;;;;;;;-148.88;100.00;-17125.47;4957069;28;20031;-86
2023/06/07 00:40:50;;;;;;;15.88;9.38;;;;;;;-148.88;100.00;-17125.47;4958322;29;20573;-86
2023/06/07 00:43:15;;;;;;;15.77;9.90;;;;;;;-148.88;100.00;-17125.47;4957977;29;20049;-87
2023/06/07 00:45:41;;;;;;;20.27;10.15;;;;;;;-148.88;100.00;-17125.47;4958100;29;20023;-86
2023/06/07 00:48:07;;;;;;;17.60;9.50;;;;;;;-148.88;100.00;-17125.47;4958036;28;20035;-87
2023/06/07 00:50:33;;;;;;;19.65;10.00;;;;;;;-148.88;100.00;-17125.47;4957255;29;20051;-86
2023/06/07 00:53:00;;;;;;;19.52;10.23;;;;;;;-148.88;100.00;-17125.47;4958000;29;20035;-86
2023/06/07 00:55:26;;;;;;;16.60;9.75;;;;;;;-148.88;100.00;-17125.47;4956565;29;20644;-87
2023/06/07 00:57:52;;;;;;;16.90;9.25;;;;;;;-148.88;100.00;-17125.47;4956414;28;20087;-87
2023/06/07 01:00:18;;;;;;;21.27;10.02;;;;;;;-148.88;100.00;-17125.47;4957825;29;20101;-87
2023/06/07 01:02:46;;;;;;;17.10;9.88;;;;;;;-148.88;100.00;-17125.47;4957938;29;20067;-88
2023/06/07 01:05:12;;;;;;;17.75;9.88;;;;;;;-148.88;100.00;-17125.47;4957778;29;20121;-86
2023/06/07 01:07:37;;;;;;;14.50;9.13;;;;;;;-148.88;100.00;-17125.47;4957320;28;20038;-87
2023/06/07 01:10:05;;;;;;;17.73;10.07;;;;;;;-148.88;100.00;-17125.47;4972676;28;20035;-87
2023/06/07 01:12:34;;;;;;;17.38;10.25;;;;;;;-148.88;100.00;-17125.47;4972350;28;20535;-87
2023/06/07 01:15:00;;;;;;;17.05;10.15;;;;;;;-148.88;100.00;-17125.47;4957282;29;20022;-87
2023/06/07 01:17:26;;;;;;;19.27;10.30;;;;;;;-148.88;100.00;-17125.47;4957240;28;20027;-86
2023/06/07 01:19:53;;;;;;;16.55;9.85;;;;;;;-148.88;100.00;-17125.47;4957329;28;20037;-87
2023/06/07 01:22:27;;;;;;;18.83;10.18;;;;;;;-148.88;100.00;-17125.47;4972525;28;20035;-86
2023/06/07 01:24:53;;;;;;;19.20;10.13;;;;;;;-148.88;100.00;-17125.47;4955905;29;20087;-85
2023/06/07 01:27:21;;;;;;;18.60;9.88;;;;;;;-148.88;100.00;-17125.47;4956923;28;20513;-87
2023/06/07 01:29:49;;;;;;;20.23;10.23;;;;;;;-148.88;100.00;-17125.47;4955939;28;20130;-86
2023/06/07 01:32:15;;;;;;;18.23;10.32;;;;;;;-148.88;100.00;-17125.47;4957049;29;20031;-86
2023/06/07 01:34:41;;;;;;;16.88;10.13;;;;;;;-148.88;100.00;-17125.47;4955996;29;20390;-87
2023/06/07 01:37:07;;;;;;;19.35;10.88;;;;;;;-148.88;100.00;-17125.47;4955984;28;20027;-87
2023/06/07 01:39:33;;;;;;;21.13;10.52;;;;;;;-148.88;100.00;-17125.47;4957136;29;20102;-87
2023/06/07 01:42:00;;;;;;;22.63;10.90;;;;;;;-148.88;100.00;-17125.47;4957096;29;20073;-86
2023/06/07 01:44:26;;;;;;;19.52;11.27;;;;;;;-148.88;100.00;-17125.47;4955343;28;20088;-86
2023/06/07 01:46:51;;;;;;;20.95;10.30;;;;;;;-148.88;100.00;-17125.47;4955492;28;20039;-85
2023/06/07 01:49:19;;;;;;;19.48;10.77;;;;;;;-148.88;100.00;-17125.47;4956855;29;20081;-87
2023/06/07 01:51:45;;;;;;;19.92;10.60;;;;;;;-148.88;100.00;-17125.47;4971680;28;20136;-87
2023/06/07 01:54:10;;;;;;;22.10;10.73;;;;;;;-148.88;100.00;-17125.47;4971504;28;20035;-87
2023/06/07 01:56:43;;;;;;;21.08;11.15;;;;;;;-148.88;100.00;-17125.47;4955336;28;20034;-87
2023/06/07 01:59:22;;;;;;;22.08;11.75;;;;;;;-148.88;100.00;-17125.47;4955300;29;20023;-86
2023/06/07 02:01:59;;;;;;;19.02;10.70;;;;;;;-148.88;100.00;-17125.47;4971921;28;20036;-87
2023/06/07 02:04:42;;;;;;;19.45;9.98;;;;;;;-148.88;100.00;-17125.47;4955137;29;20034;-88
2023/06/07 02:07:12;;;;;;;20.70;10.68;;;;;;;-148.88;100.00;-17125.47;4956162;28;20027;-87
2023/06/07 02:09:40;;;;;;;19.00;10.80;;;;;;;-148.88;100.00;-17125.47;4957050;29;20482;-85
2023/06/07 02:12:10;;;;;;;19.95;10.98;;;;;;;-148.88;100.00;-17125.47;4955084;29;20503;-87
2023/06/07 02:14:36;;;;;;;15.45;9.40;;;;;;;-148.88;100.00;-17125.47;4971452;28;20210;-88
2023/06/07 02:17:06;;;;;;;23.52;10.50;;;;;;;-148.88;100.00;-17125.47;4955008;28;20445;-87
2023/06/07 02:19:33;;;;;;;16.25;9.63;;;;;;;-148.88;100.00;-17125.47;4971470;28;20442;-87
2023/06/07 02:21:58;;;;;;;20.17;10.85;;;;;;;-148.88;100.00;-17125.47;4970635;28;20034;-86
2023/06/07 02:24:25;;;;;;;20.77;10.68;;;;;;;-148.88;100.00;-17125.47;4956162;29;20035;-88
2023/06/07 02:26:53;;;;;;;21.35;11.15;;;;;;;-148.88;100.00;-17125.47;4956153;28;20456;-87
2023/06/07 02:29:19;;;;;;;21.90;11.40;;;;;;;-148.88;100.00;-17125.47;4956514;29;20102;-87
2023/06/07 02:31:48;;;;;;;18.40;10.52;;;;;;;-148.88;100.00;-17125.47;4954573;29;20118;-87
2023/06/07 02:34:13;;;;;;;20.98;11.35;;;;;;;-148.88;100.00;-17125.47;4955217;29;20481;-87
2023/06/07 02:36:40;;;;;;;18.83;10.73;;;;;;;-148.88;100.00;-17125.47;4955777;28;20027;-87
2023/06/07 02:39:08;;;;;;;18.60;10.77;;;;;;;-148.88;100.00;-17125.47;4954935;29;20034;-87
2023/06/07 02:41:34;;;;;;;20.15;11.10;;;;;;;-148.88;100.00;-17125.47;4954765;29;20030;-87
2023/06/07 02:44:00;;;;;;;21.88;11.32;;;;;;;-148.88;100.00;-17125.47;4954843;29;20110;-87
2023/06/07 02:46:25;;;;;;;19.77;11.45;;;;;;;-148.88;100.00;-17125.47;4955661;28;20802;-86
2023/06/07 02:48:51;;;;;;;21.17;11.57;;;;;;;-148.88;100.00;-17125.47;4954714;29;20038;-85
2023/06/07 02:51:19;;;;;;;21.73;11.35;;;;;;;-148.88;100.00;-17125.47;4971265;28;20027;-87
2023/06/07 02:53:45;;;;;;;18.02;11.35;;;;;;;-148.88;100.00;-17125.47;4956059;29;20489;-87
2023/06/07 02:56:11;;;;;;;19.85;12.38;;;;;;;-148.88;100.00;-17125.47;4971281;28;20110;-87
2023/06/07 02:58:37;;;;;;;21.35;12.15;;;;;;;-148.88;100.00;-17125.47;4970577;28;20409;-82
2023/06/07 03:01:07;;;;;;;20.35;11.52;;;;;;;-148.88;100.00;-17125.47;4955908;29;20055;-84
2023/06/07 03:03:36;;;;;;;21.35;12.15;;;;;;;-148.88;100.00;-17125.47;4956085;29;20024;-84
2023/06/07 03:06:07;;;;;;;27.23;12.70;;;;;;;-148.88;100.00;-17125.47;4954232;29;20023;-83
2023/06/07 03:08:33;;;;;;;20.17;12.10;;;;;;;-148.88;100.00;-17125.47;4954374;28;20371;-84
2023/06/07 03:10:58;;;;;;;24.02;12.25;;;;;;;-148.88;100.00;-17125.47;4954554;29;20030;-84
2023/06/07 03:13:24;;;;;;;25.17;12.45;;;;;;;-148.88;100.00;-17125.47;4954127;29;20134;-84
2023/06/07 03:15:50;;;;;;;24.52;11.95;;;;;;;-148.88;100.00;-17125.47;4955648;29;20019;-84
2023/06/07 03:18:15;;;;;;;21.65;12.57;;;;;;;-148.88;100.00;-17125.47;4956231;28;20030;-83
2023/06/07 03:20:44;;;;;;;26.85;13.77;;;;;;;-148.88;100.00;-17125.47;4973564;29;20034;-82
2023/06/07 03:23:10;;;;;;;26.40;13.52;;;;;;;-148.88;100.00;-17125.47;4975845;29;20071;-84
2023/06/07 03:25:36;;;;;;;27.27;13.80;;;;;;;-148.88;100.00;-17125.47;4968595;29;20031;-84
2023/06/07 03:28:02;;;;;;;25.50;13.23;;;;;;;-148.88;100.00;-17125.47;4958834;28;20023;-84
2023/06/07 03:30:28;;;;;;;22.02;12.85;;;;;;;-148.88;100.00;-17125.47;4959729;29;20122;-84
2023/06/07 03:32:53;;;;;;;24.45;12.68;;;;;;;-148.88;100.00;-17125.47;4971932;28;20066;-85
2023/06/07 03:35:19;;;;;;;24.35;12.80;;;;;;;-148.88;100.00;-17125.47;4955271;29;20028;-84
2023/06/07 03:37:45;;;;;;;22.95;12.93;;;;;;;-148.88;100.00;-17125.47;4955484;28;20381;-84
2023/06/07 03:40:10;;;;;;;24.75;13.35;;;;;;;-148.88;100.00;-17125.47;4956147;29;20023;-84
2023/06/07 03:42:36;;;;;;;25.40;13.70;;;;;;;-148.88;100.00;-17125.47;4955225;29;20031;-84
2023/06/07 03:45:02;;;;;;;25.20;13.55;;;;;;;-148.88;100.00;-17125.47;4955494;29;20058;-85
2023/06/07 03:47:28;;;;;;;28.05;14.73;;;;;;;-148.88;100.00;-17125.47;4955059;28;20027;-85
2023/06/07 03:49:53;;;;;;;26.00;14.00;;;;;;;-148.88;100.00;-17125.47;4955278;29;20504;-85
2023/06/07 03:52:18;;;;;;;25.00;13.55;;;;;;;-148.88;100.00;-17125.47;4954900;29;20042;-84
2023/06/07 03:54:44;;;;;;;28.33;13.93;;;;;;;-148.88;100.00;-17125.47;4954913;29;20099;-84
2023/06/07 03:57:10;;;;;;;26.00;13.45;;;;;;;-148.88;100.00;-17125.47;4955011;28;20038;-84
2023/06/07 03:59:36;;;;;;;24.15;13.70;;;;;;;-148.88;100.00;-17125.47;4955015;29;20054;-85
2023/06/07 04:02:03;;;;;;;26.48;13.95;;;;;;;-148.88;100.00;-17125.47;4953653;29;20054;-84
2023/06/07 04:04:29;;;;;;;26.58;14.52;;;;;;;-148.88;100.00;-17125.47;4954870;29;20393;-84
2023/06/07 04:09:30;;;;;;;24.73;13.90;;;;;;;-148.88;100.00;-17125.47;4974609;28;20495;-73
2023/06/07 04:11:55;;;;;;;24.20;13.80;;;;;;;-148.88;100.00;-17125.47;4975773;28;20031;-73
2023/06/07 04:14:20;;;;;;;30.48;13.75;;;;;;;-148.88;100.00;-17125.47;4976803;28;20026;-75
2023/06/07 04:16:46;;;;;;;26.42;14.70;;;;;;;-148.88;100.00;-17125.47;4975414;28;20076;-75
2023/06/07 04:19:11;;;;;;;30.00;14.30;;;;;;;-148.88;100.00;-17125.47;4976847;28;20068;-73
2023/06/07 04:21:37;;;;;;;26.67;14.20;;;;;;;-148.88;100.00;-17125.47;4976733;28;20033;-74
2023/06/07 04:24:04;;;;;;;25.05;14.55;;;;;;;-148.88;100.00;-17125.47;4976700;28;20023;-73
2023/06/07 04:26:31;;;;;;;28.95;15.07;;;;;;;-148.88;100.00;-17125.47;4975275;28;20093;-74
2023/06/07 04:28:59;;;;;;;25.80;14.98;;;;;;;-148.88;100.00;-17125.47;4976640;28;20030;-74
2023/06/07 04:31:29;;;;;;;27.73;15.77;;;;;;;-148.88;100.00;-17125.47;4976787;28;20509;-73
2023/06/07 04:33:57;;;;;;;31.40;15.15;;;;;;;-148.88;100.00;-17125.47;4976892;28;20038;-73
2023/06/07 04:36:25;;;;;;;34.88;16.00;;;;;;;-148.88;100.00;-17125.47;4976394;28;20081;-74
2023/06/07 04:38:52;;;;;;;25.25;14.25;;;;;;;-148.88;100.00;-17125.47;4976475;28;20556;-73
2023/06/07 04:41:18;;;;;;;26.38;15.48;;;;;;;-148.88;100.00;-17125.47;4976493;28;20114;-74
2023/06/07 04:43:48;;;;;;;29.67;15.15;;;;;;;-148.88;100.00;-17125.47;4976314;28;20105;-74
2023/06/07 04:46:15;;;;;;;30.52;15.10;;;;;;;-148.88;100.00;-17125.47;4976411;28;20049;-73
2023/06/07 04:48:43;;;;;;;30.67;15.40;;;;;;;-148.88;100.00;-17125.47;4974100;28;20026;-75
2023/06/07 04:51:09;;;;;;;28.02;14.98;;;;;;;-148.88;100.00;-17125.47;4974746;28;20038;-76
2023/06/07 04:53:36;;;;;;;29.98;15.27;;;;;;;-148.88;100.00;-17125.47;4974751;28;20031;-77
2023/06/07 04:56:02;;;;;;;30.23;15.77;;;;;;;-148.88;100.00;-17125.47;4975941;28;20027;-75
2023/06/07 04:58:27;;;;;;;32.17;16.17;;;;;;;-148.88;100.00;-17125.47;4975977;28;20030;-76
2023/06/07 05:00:53;;;;;;;32.33;15.35;;;;;;;-148.88;100.00;-17125.47;4976159;28;20034;-75
2023/06/07 05:03:24;;;;;;;33.05;16.27;;;;;;;-148.88;100.00;-17125.47;4976075;28;20474;-75
2023/06/07 05:05:50;;;;;;;27.98;16.77;;;;;;;-148.88;100.00;-17125.47;4976125;28;20560;-75
2023/06/07 05:08:16;;;;;;;30.80;16.38;;;;;;;-148.88;100.00;-17125.47;4975725;28;20054;-76
2023/06/07 05:10:41;;;;;;;29.00;16.50;;;;;;;-148.88;100.00;-17125.47;4975603;28;20022;-75
2023/06/07 05:13:06;;;;;;;34.55;16.38;;;;;;;-148.88;100.00;-17125.47;4975703;28;20061;-75
2023/06/07 05:15:32;;;;;;;33.45;17.30;;;;;;;-148.88;100.00;-17125.47;4975859;28;20049;-75
2023/06/07 05:17:58;;;;;;;30.13;16.73;;;;;;;-148.88;100.00;-17125.47;4975294;28;20034;-75
2023/06/07 05:20:27;;;;;;;28.52;16.38;;;;;;;-148.88;100.00;-17125.47;4975819;28;20026;-75
2023/06/07 05:22:53;;;;;;;30.40;17.38;;;;;;;-148.88;100.00;-17125.47;4974454;28;20469;-75
2023/06/07 05:25:18;;;;;;;33.13;17.27;;;;;;;-148.88;100.00;-17125.47;4974231;28;20031;-74
2023/06/07 05:27:44;;;;;;;27.67;15.98;;;;;;;-148.88;100.00;-17125.47;4975546;28;20053;-77
2023/06/07 05:30:10;;;;;;;29.88;16.02;;;;;;;-148.88;100.00;-17125.47;4975676;28;20422;-77
2023/06/07 05:32:36;;;;;;;28.02;15.20;;;;;;;-148.88;100.00;-17125.47;4975406;28;20414;-76
2023/06/07 05:35:03;;;;;;;28.05;15.88;;;;;;;-148.88;100.00;-17125.47;4975342;28;20027;-75
2023/06/07 05:37:31;;;;;;;30.17;15.35;;;;;;;-148.88;100.00;-17125.47;4975411;28;20081;-75
2023/06/07 05:39:58;;;;;;;30.08;14.75;;;;;;;-148.88;100.00;-17125.47;4975357;28;20099;-75
2023/06/07 05:42:23;;;;;;;25.75;13.82;;;;;;;-148.88;100.00;-17125.47;4975231;28;20023;-75
2023/06/07 05:44:49;;;;;;;26.67;14.43;;;;;;;-148.88;100.00;-17125.47;4975064;28;20023;-77
2023/06/07 05:47:16;;;;;;;28.33;14.57;;;;;;;-148.88;100.00;-17125.47;4975267;28;20056;-76
2023/06/07 05:49:43;;;;;;;26.55;14.60;;;;;;;-148.88;100.00;-17125.47;4975428;28;20042;-76
2023/06/07 05:52:09;;;;;;;32.50;14.90;;;;;;;-148.88;100.00;-17125.47;4973891;28;20038;-76
2023/06/07 05:54:34;;;;;;;29.67;14.70;;;;;;;-148.88;100.00;-17125.47;4971293;28;20027;-77
2023/06/07 05:56:59;;;;;;;26.05;14.13;;;;;;;-148.88;100.00;-17125.47;4974900;28;20023;-76
2023/06/07 05:59:27;;;;;;;26.58;14.10;;;;;;;-148.88;100.00;-17125.47;4975103;28;20085;-76
2023/06/07 06:01:52;;;;;;;28.38;14.38;;;;;;;-148.88;100.00;-17125.47;4975559;28;20033;-77
2023/06/07 06:04:18;;;;;;;28.35;14.35;;;;;;;-148.88;100.00;-17125.47;4975043;28;20023;-76
2023/06/07 06:06:43;;;;;;;28.83;15.68;;;;;;;-148.88;100.00;-17125.47;4967231;28;20122;-77
2023/06/07 06:09:09;;;;;;;30.98;15.65;;;;;;;-148.88;100.00;-17125.47;4967445;28;20126;-75
2023/06/07 06:11:35;;;;;;;29.30;15.55;;;;;;;-148.88;100.00;-17125.47;4974663;28;20101;-76
2023/06/07 06:14:00;;;;;;;33.83;15.32;;;;;;;-148.88;100.00;-17125.47;4974959;28;20023;-76
2023/06/07 06:16:26;;;;;;;28.45;15.43;;;;;;;-148.88;100.00;-17125.47;4956345;28;20026;-76
2023/06/07 06:18:51;;;;;;;27.63;15.23;;;;;;;-148.88;100.00;-17125.47;4955466;29;20490;-76
2023/06/07 06:21:17;;;;;;;33.45;16.10;;;;;;;-148.88;100.00;-17125.47;4955615;28;20536;-75
2023/06/07 06:23:42;;;;;;;31.33;15.68;;;;;;;-148.88;100.00;-17125.47;4955543;28;20023;-76
2023/06/07 06:26:08;;;;;;;30.85;15.68;;;;;;;-148.88;100.00;-17125.47;4955598;28;20031;-76
2023/06/07 06:28:34;;;;;;;28.80;14.88;;;;;;;-148.88;100.00;-17125.47;4955391;29;20055;-76
2023/06/07 06:31:01;;;;;;;27.23;15.98;;;;;;;-148.88;100.00;-17125.47;4954277;28;20074;-75
2023/06/07 06:33:26;;;;;;;27.40;15.07;;;;;;;-148.88;100.00;-17125.47;4955132;28;20487;-75
2023/06/07 06:35:53;;;;;;;30.85;15.50;;;;;;;-148.88;100.00;-17125.47;4955122;28;20023;-75
2023/06/07 06:38:18;;;;;;;32.65;16.85;;;;;;;-148.88;100.00;-17125.47;4955129;28;20490;-75
2023/06/07 06:40:44;;;;;;;27.83;15.80;;;;;;;-148.88;100.00;-17125.47;4953753;29;20031;-76
2023/06/07 06:43:10;;;;;;;35.15;16.15;;;;;;;-148.88;100.00;-17125.47;4953655;29;20051;-76
2023/06/07 06:45:36;;;;;;;26.20;15.30;;;;;;;-148.88;100.00;-17125.47;4954742;28;20231;-76
2023/06/07 06:48:01;;;;;;;34.80;16.25;;;;;;;-148.88;100.00;-17125.47;4954879;29;20498;-76
2023/06/07 06:50:28;;;;;;;25.65;16.65;;;;;;;-148.88;100.00;-17125.47;4954825;29;20057;-76
2023/06/07 06:52:53;;;;;;;30.55;17.50;;;;;;;-148.88;100.00;-17125.47;4953406;29;20027;-76
2023/06/07 06:55:19;;;;;;;34.58;16.90;;;;;;;-148.88;100.00;-17125.47;4953228;29;20019;-75
2023/06/07 06:57:44;;;;;;;29.50;16.08;;;;;;;-148.88;100.00;-17125.47;4954741;28;20027;-75
2023/06/07 07:00:11;;;;;;;29.67;15.73;;;;;;;-148.88;100.00;-17125.47;4953189;29;20038;-76
2023/06/07 07:02:37;;;;;;;30.63;16.23;;;;;;;-148.88;100.00;-17125.47;4954608;28;20023;-76
2023/06/07 07:05:05;;;;;;;29.95;15.75;;;;;;;-148.88;100.00;-17125.47;4953159;29;20384;-76
2023/06/07 07:07:31;;;;;;;31.77;15.98;;;;;;;-148.88;100.00;-17125.47;4954530;28;20034;-75
2023/06/07 07:09:56;;;;;;;32.40;16.80;;;;;;;-148.88;100.00;-17125.47;4954568;28;20031;-76
2023/06/07 07:12:22;;;;;;;29.20;17.30;;;;;;;-148.88;100.00;-17125.47;4953163;29;20181;-75
2023/06/07 07:14:47;;;;;;;31.83;16.60;;;;;;;-148.88;100.00;-17125.47;4954531;29;20019;-75
2023/06/07 07:17:13;;;;;;;34.08;17.50;;;;;;;-148.88;100.00;-17125.47;4954476;28;20027;-76
2023/06/07 07:19:38;;;;;;;34.67;16.65;;;;;;;-148.88;100.00;-17125.47;4954034;29;20031;-77
2023/06/07 07:22:04;;;;;;;33.15;17.02;;;;;;;-148.88;100.00;-17125.47;4954930;29;20102;-76
2023/06/07 07:24:30;;;;;;;29.52;16.98;;;;;;;-148.88;100.00;-17125.47;4954282;28;20127;-75
2023/06/07 07:26:55;;;;;;;26.35;15.73;;;;;;;-148.88;100.00;-17125.47;4954261;28;20069;-75
2023/06/07 07:29:21;;;;;;;31.98;17.50;;;;;;;-148.88;100.00;-17125.47;4953078;29;20384;-75
2023/06/07 07:35:08;;;;;;;30.67;15.90;;;;;;;-148.88;100.00;-17125.47;4954301;29;20038;-75
2023/06/07 07:37:35;;;;;;;34.85;17.23;;;;;;;-148.88;100.00;-17125.47;4954534;29;20055;-75
2023/06/07 07:40:00;;;;;;;29.38;15.70;;;;;;;-148.88;100.00;-17125.47;4954229;28;20023;-75
2023/06/07 07:42:27;;;;;;;29.63;16.25;;;;;;;-148.88;100.00;-17125.47;4956529;28;20508;-75
2023/06/07 07:44:52;;;;;;;31.75;16.20;;;;;;;-148.88;100.00;-17125.47;4957966;28;20392;-76
2023/06/07 07:47:17;;;;;;;31.30;16.52;;;;;;;-148.88;100.00;-17125.47;4958040;29;20557;-75
2023/06/07 07:49:43;;;;;;;31.45;15.77;;;;;;;-148.88;100.00;-17125.47;4956891;29;20019;-75
2023/06/07 07:52:08;;;;;;;33.22;15.75;;;;;;;-148.88;100.00;-17125.47;4958147;29;20383;-75
2023/06/07 07:54:33;;;;;;;30.15;16.90;;;;;;;-148.88;100.00;-17125.47;4956678;29;20064;-75
2023/06/07 07:57:00;;;;;;;26.10;16.48;;;;;;;-148.88;100.00;-17125.47;4957906;29;20122;-75
2023/06/07 07:59:25;;;;;;;30.75;16.50;;;;;;;-148.88;100.00;-17125.47;4957978;28;20028;-75
2023/06/07 08:01:51;;;;;;;30.65;16.75;;;;;;;-148.88;100.00;-17125.47;4957957;29;20033;-76
2023/06/07 08:04:17;;;;;;;33.92;18.20;;;;;;;-148.88;100.00;-17125.47;4957892;28;20023;-75
2023/06/07 08:06:42;;;;;;;35.80;18.55;;;;;;;-148.88;100.00;-17125.47;4957933;29;20117;-75
2023/06/07 08:09:09;;;;;;;33.97;19.80;;;;;;;-148.88;100.00;-17125.47;4956513;29;20045;-75
2023/06/07 08:11:35;;;;;;;35.40;18.65;;;;;;;-148.88;100.00;-17125.47;4956567;29;20027;-75
2023/06/07 08:14:01;;;;;;;31.58;18.45;;;;;;;-148.88;100.00;-17125.47;4957595;29;20027;-75
2023/06/07 08:16:26;;;;;;;36.30;17.88;;;;;;;-148.88;100.00;-17125.47;4958069;29;20019;-76
2023/06/07 08:18:57;;;;;;;37.13;18.17;;;;;;;-148.88;100.00;-17125.47;4957693;28;20029;-75
2023/06/07 08:21:24;;;;;;;33.97;18.35;;;;;;;-148.88;100.00;-17125.47;4957645;28;20026;-75
2023/06/07 08:23:52;;;;;;;32.33;18.67;;;;;;;-148.88;100.00;-17125.47;4956309;29;20034;-75
2023/06/07 08:26:18;;;;;;;27.70;16.65;;;;;;;-148.88;100.00;-17125.47;4957354;28;20098;-75
2023/06/07 08:28:43;;;;;;;32.90;15.85;;;;;;;-148.88;100.00;-17125.47;4957912;28;20131;-75
2023/06/07 08:31:10;;;;;;;31.83;15.98;;;;;;;-148.88;100.00;-17125.47;4957463;29;20074;-75
2023/06/07 08:33:36;;;;;;;33.63;17.02;;;;;;;-148.88;100.00;-17125.47;4957358;28;20118;-75
2023/06/07 08:36:02;;;;;;;32.30;15.80;;;;;;;-148.88;100.00;-17125.47;4955973;29;20106;-74
2023/06/07 08:38:27;;;;;;;35.90;16.80;;;;;;;-148.88;100.00;-17125.47;4957303;28;20050;-74
2023/06/07 08:40:56;;;;;;;29.65;15.98;;;;;;;-148.88;100.00;-17125.47;4957204;29;20030;-74
2023/06/07 08:43:25;;;;;;;26.65;15.57;;;;;;;-148.88;100.00;-17125.47;4957130;28;20035;-74
2023/06/07 08:45:51;;;;;;;27.13;15.38;;;;;;;-148.88;100.00;-17125.47;4956886;28;20029;-75
2023/06/07 08:48:17;;;;;;;26.35;14.93;;;;;;;-148.88;100.00;-17125.47;4957035;28;20106;-75
2023/06/07 08:50:45;;;;;;;26.52;14.68;;;;;;;-148.88;100.00;-17125.47;4956895;28;20030;-75
2023/06/07 08:53:18;;;;;;;26.55;14.75;;;;;;;-148.88;100.00;-17125.47;4954464;28;20038;-74
2023/06/07 08:55:44;;;;;;;25.20;15.05;;;;;;;-148.88;100.00;-17125.47;4956775;28;20505;-74
2023/06/07 08:58:10;;;;;;;26.63;16.17;;;;;;;-148.88;100.00;-17125.47;4956700;28;20031;-74
2023/06/07 09:00:36;;;;;;;27.60;15.55;;;;;;;-148.88;100.00;-17125.47;4956886;28;20081;-74
2023/06/07 09:03:02;;;;;;;31.92;16.40;;;;;;;-148.88;100.00;-17125.47;4956804;29;20419;-74
2023/06/07 09:05:27;;;;;;;25.98;15.82;;;;;;;-148.88;100.00;-17125.47;4955512;29;20155;-75
2023/06/07 09:07:55;;;;;;;26.98;15.10;;;;;;;-148.88;100.00;-17125.47;4956739;29;20035;-75
2023/06/07 09:10:23;;;;;;;28.48;15.05;;;;;;;-148.88;100.00;-17125.47;4956669;29;20088;-74
2023/06/07 09:12:48;;;;;;;28.15;14.85;;;;;;;-148.88;100.00;-17125.47;4955217;29;20090;-75
2023/06/07 09:15:21;;;;;;;28.00;14.30;;;;;;;-148.88;100.00;-17125.47;4954987;29;20025;-75
2023/06/07 09:17:54;;;;;;;38.03;17.42;;;;;;;-148.88;100.00;-17125.47;4956488;28;20082;-75
2023/06/07 09:20:24;;;;;;;31.30;15.77;;;;;;;-148.88;100.00;-17125.47;4955007;29;20027;-75
2023/06/07 09:23:16;;;;;;;25.30;16.20;;;;;;;-148.88;100.00;-17125.47;4956366;28;20063;-75
2023/06/07 09:25:45;;;;;;;30.95;16.42;;;;;;;-148.88;100.00;-17125.47;4955005;29;20406;-75
2023/06/07 09:28:15;;;;;;;29.00;15.07;;;;;;;-148.88;100.00;-17125.47;4956156;28;20470;-75
2023/06/07 09:30:57;;;;;;;28.40;14.90;;;;;;;-148.88;100.00;-17125.47;4956201;28;20031;-75
2023/06/07 09:33:29;;;;;;;29.73;14.88;;;;;;;-148.88;100.00;-17125.47;4956147;28;20035;-75
2023/06/07 09:36:06;;;;;;;25.67;14.27;;;;;;;-148.88;100.00;-17125.47;4954740;29;20050;-75
2023/06/07 09:38:33;;;;;;;26.60;13.85;;;;;;;-148.88;100.00;-17125.47;4956152;28;20034;-75
2023/06/07 09:40:59;;;;;;;27.58;13.40;;;;;;;-148.88;100.00;-17125.47;4956278;28;20034;-75
2023/06/07 09:43:25;;;;;;;22.38;12.23;;;;;;;-148.88;100.00;-17125.47;4955047;29;20450;-75
2023/06/07 09:45:55;;;;;;;22.13;12.32;;;;;;;-148.88;100.00;-17125.47;4954747;29;20403;-75
2023/06/07 09:48:21;;;;;;;21.65;11.63;;;;;;;-148.88;100.00;-17125.47;4954684;29;20035;-75
2023/06/07 09:51:04;;;;;;;23.33;11.77;;;;;;;-148.88;100.00;-17125.47;4956070;28;20027;-75
2023/06/07 09:53:48;;;;;;;21.75;11.93;;;;;;;-148.88;100.00;-17125.47;4956101;29;20042;-75
2023/06/07 09:56:16;;;;;;;;;;;;;;;-148.88;100.00;-17125.47;4956370;28;20617;-75
2023/06/07 09:58:42;;;;;;;23.70;11.02;;;;;;;-148.88;100.00;-17125.47;4955842;28;19911;-75
2023/06/07 10:01:08;;;;;;;16.90;10.98;;;;;;;-148.88;100.00;-17125.47;4956089;28;20426;-75
2023/06/07 10:03:43;;;;;;;24.85;11.73;;;;;;;-148.88;100.00;-17125.47;4955706;29;20110;-75
2023/06/07 10:06:08;;;;;;;18.30;10.85;;;;;;;-148.88;100.00;-17125.47;4955436;28;20398;-75
2023/06/07 10:08:34;;;;;;;20.88;11.23;;;;;;;-148.88;100.00;-17125.47;4955468;28;20509;-75
2023/06/07 10:11:00;;;;;;;24.02;10.88;;;;;;;-148.88;100.00;-17125.47;4955515;28;20402;-75
2023/06/07 10:13:26;;;;;;;22.45;11.63;;;;;;;-148.88;100.00;-17125.47;4955374;28;20532;-75
2023/06/07 10:15:53;;;;;;;24.13;11.50;;;;;;;-148.88;100.00;-17125.47;4955325;29;20015;-75
2023/06/07 10:18:26;;;;;;;22.70;10.68;;;;;;;-148.88;100.00;-17125.47;4955742;28;20027;-75
2023/06/07 10:20:57;;;;;;;16.87;10.57;;;;;;;-148.88;100.00;-17125.47;4955494;28;20027;-75
2023/06/07 10:23:31;;;;;;;20.13;10.55;;;;;;;-148.88;100.00;-17125.47;4955674;28;20177;-75
2023/06/07 10:26:04;;;;;;;19.63;11.02;;;;;;;-148.88;100.00;-17125.47;4955117;28;20030;-75
2023/06/07 10:29:09;;;;;;;21.05;10.52;;;;;;;-148.88;100.00;-17125.47;4954008;29;20034;-75
2023/06/07 10:31:59;;;;;;;20.40;10.82;;;;;;;-148.88;100.00;-17125.47;4934667;29;20042;-75
2023/06/07 10:34:25;;;;;;;20.38;10.05;;;;;;;-148.88;100.00;-17125.47;4955132;29;20470;-75
2023/06/07 10:36:52;;;;;;;19.83;11.02;;;;;;;-148.88;100.00;-17125.47;4955108;28;20027;-75
2023/06/07 10:39:19;;;;;;;21.40;11.70;;;;;;;-148.88;100.00;-17125.47;4955031;28;20054;-74
2023/06/07 10:41:44;;;;;;;19.67;10.80;;;;;;;-148.88;100.00;-17125.47;4955011;28;20552;-75
2023/06/07 10:44:11;;;;;;;18.08;9.93;;;;;;;-148.88;100.00;-17125.47;4954835;28;20035;-75
2023/06/07 10:46:36;;;;;;;21.67;10.57;;;;;;;-148.88;100.00;-17125.47;4954653;28;20110;-75
2023/06/07 10:49:03;;;;;;;20.27;10.85;;;;;;;-148.88;100.00;-17125.47;4953844;29;20123;-75
2023/06/07 10:51:44;;;;;;;17.42;10.05;;;;;;;-148.88;100.00;-17125.47;4955004;28;20023;-75
2023/06/07 10:54:10;;;;;;;20.65;10.20;;;;;;;-148.88;100.00;-17125.47;4955172;28;20027;-75